Time;durP1;ratioP1;P1;durP2;ratioP2;P2;SDS_P1;SDS_P2;PMS_P1;PMS_P2;Temp;Humidity;BMP_temperature;BMP_pressure;BME280_temperature;BME280_humidity;BME280_pressure;Samples;Min_cycle;Max_cycle;Signal;HPM_P1;HPM_P2
2022/05/04 00:00:42;;;;;;;8.60;6.10;;;;;;;16.61;43.68;98990.84;233414;1217;141343;-60
2022/05/04 00:05:45;;;;;;;9.70;6.40;;;;;;;16.55;43.97;98994.41;233517;1217;138638;-61
2022/05/04 00:10:48;;;;;;;9.10;6.90;;;;;;;16.47;43.91;98987.98;233234;1218;138559;-61
2022/05/04 00:15:51;;;;;;;13.20;6.80;;;;;;;16.39;43.97;98993.11;233396;1217;138776;-59
2022/05/04 00:20:55;;;;;;;11.90;6.60;;;;;;;16.34;44.23;98996.27;233377;1217;138923;-60
2022/05/04 00:25:58;;;;;;;10.00;6.50;;;;;;;16.25;44.29;99006.34;233299;1217;138640;-60
2022/05/04 00:31:01;;;;;;;9.10;6.20;;;;;;;16.20;44.38;99013.91;233502;1217;139412;-60
2022/05/04 00:36:04;;;;;;;11.70;6.00;;;;;;;16.14;44.29;99011.25;233533;1217;138708;-60
2022/05/04 00:41:07;;;;;;;7.90;5.30;;;;;;;16.06;44.29;99008.65;233415;1217;139133;-61
2022/05/04 00:46:10;;;;;;;9.00;6.40;;;;;;;16.02;44.48;99014.70;233486;1217;138852;-60
2022/05/04 00:51:14;;;;;;;12.10;6.20;;;;;;;16.03;44.60;99015.73;233300;1217;138509;-60
2022/05/04 00:56:17;;;;;;;11.80;5.70;;;;;;;16.00;44.66;99023.68;233213;1217;139055;-62
2022/05/04 01:01:29;;;;;;;9.20;5.30;;;;;;;15.94;44.67;99020.58;233560;1217;139486;-61
2022/05/04 01:06:33;;;;;;;9.70;5.40;;;;;;;15.96;44.61;99019.00;233345;1217;138552;-61
2022/05/04 01:11:36;;;;;;;9.70;6.00;;;;;;;15.92;44.71;99016.99;233439;1215;139257;-61
2022/05/04 01:16:42;;;;;;;14.40;6.90;;;;;;;15.89;44.65;99022.29;233387;1217;139035;-62
2022/05/04 01:21:49;;;;;;;8.20;5.80;;;;;;;15.84;44.63;99030.97;233409;1217;139161;-61
2022/05/04 01:26:52;;;;;;;10.50;5.80;;;;;;;15.77;44.80;99033.54;233337;1217;139553;-62
2022/05/04 01:31:55;;;;;;;9.70;5.90;;;;;;;15.71;44.75;99032.59;233403;1217;139051;-60
2022/05/04 01:36:58;;;;;;;8.20;5.60;;;;;;;15.62;44.87;99030.59;233383;1216;138785;-61
2022/05/04 01:42:05;;;;;;;10.00;6.40;;;;;;;15.52;45.06;99037.66;233542;1217;138637;-60
2022/05/04 01:47:08;;;;;;;8.50;5.90;;;;;;;15.42;45.43;99031.73;233384;1217;138916;-59
2022/05/04 01:52:12;;;;;;;10.30;6.70;;;;;;;15.39;45.54;99036.86;233368;1217;141467;-60
2022/05/04 01:57:15;;;;;;;13.50;7.30;;;;;;;15.32;45.74;99030.95;233270;1217;139574;-57
2022/05/04 02:02:18;;;;;;;11.60;6.50;;;;;;;15.26;45.92;99033.41;233373;1217;139456;-61
2022/05/04 02:07:21;;;;;;;11.60;7.00;;;;;;;15.20;46.34;99046.40;233428;1215;139112;-58
2022/05/04 02:12:26;;;;;;;12.30;8.40;;;;;;;15.13;46.55;99052.48;233332;1217;139002;-62
2022/05/04 02:17:29;;;;;;;;;;;;;;;15.05;46.75;99050.11;233497;1217;138247;-61
2022/05/04 02:22:32;;;;;;;11.00;7.40;;;;;;;14.99;46.97;99054.48;233395;1217;125684;-61
2022/05/04 02:27:35;;;;;;;12.10;7.50;;;;;;;14.93;46.96;99057.66;233341;1217;139030;-61
2022/05/04 02:32:39;;;;;;;11.20;7.70;;;;;;;14.86;47.23;99061.82;233295;1217;140175;-62
2022/05/04 02:37:54;;;;;;;10.70;8.00;;;;;;;14.84;47.32;99074.08;233478;1216;139132;-61
2022/05/04 02:42:57;;;;;;;13.70;7.30;;;;;;;14.81;47.45;99084.67;233245;1217;139855;-62
2022/05/04 02:48:01;;;;;;;15.10;7.20;;;;;;;14.88;47.55;99087.35;233526;1217;138954;-62
2022/05/04 02:53:04;;;;;;;12.50;7.20;;;;;;;14.88;47.27;99091.42;233351;1217;139197;-61
2022/05/04 02:58:07;;;;;;;9.50;6.40;;;;;;;14.99;47.17;99091.82;233265;1217;138973;-62
2022/05/04 03:03:10;;;;;;;12.00;6.70;;;;;;;15.05;47.29;99089.80;233280;1217;139012;-62
2022/05/04 03:08:13;;;;;;;10.80;6.90;;;;;;;15.09;47.37;99089.95;233180;1217;140085;-59
2022/05/04 03:13:17;;;;;;;10.50;6.50;;;;;;;15.08;47.59;99072.70;233297;1217;210083;-62
2022/05/04 03:18:20;;;;;;;10.00;7.10;;;;;;;15.09;47.48;99059.27;233609;1217;138869;-60
2022/05/04 03:23:22;;;;;;;12.80;6.60;;;;;;;15.07;47.39;99059.93;233374;1217;140099;-62
2022/05/04 03:28:25;;;;;;;11.00;5.40;;;;;;;15.08;47.42;99055.17;233315;1217;138869;-62
2022/05/04 03:33:28;;;;;;;9.00;5.40;;;;;;;15.23;47.07;99056.00;233269;1217;138546;-62
2022/05/04 03:38:32;;;;;;;7.70;4.90;;;;;;;15.29;46.74;99063.30;233442;1217;138586;-60
2022/05/04 03:43:35;;;;;;;8.60;5.30;;;;;;;15.35;46.59;99078.39;233326;1217;138999;-60
2022/05/04 03:48:39;;;;;;;10.50;4.80;;;;;;;15.33;46.47;99081.40;233376;1217;138404;-59
2022/05/04 03:53:42;;;;;;;9.80;5.10;;;;;;;15.29;46.60;99084.09;233406;1217;139053;-61
2022/05/04 03:58:46;;;;;;;10.40;5.20;;;;;;;15.25;46.78;99089.95;233429;1217;138924;-62
2022/05/04 04:03:49;;;;;;;9.40;5.80;;;;;;;15.20;46.93;99092.99;233248;1217;139051;-61
2022/05/04 04:08:52;;;;;;;10.90;5.30;;;;;;;15.20;47.20;99096.42;233357;1217;138761;-61
2022/05/04 04:13:55;;;;;;;10.00;5.70;;;;;;;15.20;47.22;99102.66;233267;1217;139152;-61
2022/05/04 04:18:58;;;;;;;8.80;5.60;;;;;;;15.23;47.17;99108.54;233307;1217;139099;-60
2022/05/04 04:24:01;;;;;;;9.00;5.70;;;;;;;15.25;47.25;99113.67;233499;1217;138751;-60
2022/05/04 04:29:05;;;;;;;7.30;5.10;;;;;;;15.28;47.28;99119.40;233327;1217;139730;-63
2022/05/04 04:34:08;;;;;;;7.70;5.50;;;;;;;15.34;47.33;99129.93;233300;1217;141470;-60
2022/05/04 04:39:15;;;;;;;10.30;5.10;;;;;;;15.41;47.19;99148.33;233389;1219;140045;-63
2022/05/04 04:44:18;;;;;;;12.40;5.60;;;;;;;15.45;47.21;99157.13;233352;1217;139032;-63
2022/05/04 04:49:21;;;;;;;6.90;4.90;;;;;;;15.48;47.14;99155.13;233502;1217;139007;-60
2022/05/04 04:54:24;;;;;;;8.00;5.00;;;;;;;15.51;47.14;99157.77;233474;1218;138952;-60
2022/05/04 04:59:27;;;;;;;8.20;5.30;;;;;;;15.50;47.29;99152.27;233311;1218;138565;-57
2022/05/04 05:04:30;;;;;;;6.80;5.10;;;;;;;15.51;47.46;99143.79;233445;1217;138688;-61
2022/05/04 05:09:33;;;;;;;7.20;4.90;;;;;;;15.53;47.43;99144.20;233151;1217;139128;-60
2022/05/04 05:19:58;;;;;;;10.00;6.00;;;;;;;15.67;47.32;99138.41;233377;1218;138840;-59
2022/05/04 05:25:02;;;;;;;7.70;5.60;;;;;;;15.74;47.06;99137.16;233348;1219;139550;-59
2022/05/04 05:30:06;;;;;;;11.50;6.80;;;;;;;15.74;47.14;99141.76;233346;1219;139204;-62
2022/05/04 05:35:10;;;;;;;15.20;6.40;;;;;;;15.83;47.35;99152.66;233236;1219;138958;-61
2022/05/04 05:40:13;;;;;;;29.80;13.00;;;;;;;15.92;47.28;99157.73;233242;1219;139322;-63
2022/05/04 05:45:17;;;;;;;15.20;8.00;;;;;;;16.13;47.16;99154.31;232910;1217;140050;-62
2022/05/04 05:50:20;;;;;;;16.90;8.00;;;;;;;16.25;47.05;99154.19;233085;1219;139030;-61
2022/05/04 05:55:26;;;;;;;14.10;7.30;;;;;;;16.30;46.62;99164.52;233033;1219;139828;-60
2022/05/04 06:00:29;;;;;;;103.20;78.70;;;;;;;16.34;46.74;99157.23;233433;1219;138623;-60
2022/05/04 06:05:32;;;;;;;43.10;17.60;;;;;;;16.45;46.79;99155.06;233229;1217;139764;-60
2022/05/04 06:10:36;;;;;;;27.70;11.50;;;;;;;16.49;46.66;99156.88;233136;1219;138962;-62
2022/05/04 06:15:39;;;;;;;21.30;10.30;;;;;;;16.54;46.71;99162.11;233104;1219;139201;-61
2022/05/04 06:20:42;;;;;;;46.80;27.00;;;;;;;16.60;46.60;99167.08;233241;1219;140514;-64
2022/05/04 06:25:45;;;;;;;16.00;8.90;;;;;;;16.69;46.62;99165.57;233426;1217;138797;-62
2022/05/04 06:36:10;;;;;;;15.30;7.70;;;;;;;17.24;47.16;99172.42;233321;1217;138830;-60
2022/05/04 06:41:14;;;;;;;17.90;9.50;;;;;;;17.63;47.48;99173.13;233268;1217;139313;-60
2022/05/04 06:46:17;;;;;;;18.00;9.70;;;;;;;17.89;46.48;99175.90;233281;1218;139404;-60
2022/05/04 06:51:21;;;;;;;20.00;9.70;;;;;;;18.00;46.01;99176.54;233295;1218;138870;-64
2022/05/04 06:56:24;;;;;;;21.00;9.50;;;;;;;18.27;46.01;99171.91;233287;1219;139777;-61
2022/05/04 07:01:28;;;;;;;21.30;9.40;;;;;;;18.48;45.73;99168.52;233209;1217;138936;-60
2022/05/04 07:06:31;;;;;;;20.90;8.80;;;;;;;18.57;44.76;99164.80;233315;1219;139853;-64
2022/05/04 07:11:34;;;;;;;39.10;21.40;;;;;;;18.65;44.72;99161.20;233234;1217;139189;-60
2022/05/04 07:16:37;;;;;;;13.00;6.50;;;;;;;18.75;43.89;99168.52;233347;1217;139059;-61
2022/05/04 07:21:48;;;;;;;13.60;5.60;;;;;;;18.78;43.33;99159.11;233271;1217;138871;-62
2022/05/04 07:26:51;;;;;;;11.20;5.60;;;;;;;18.80;42.86;99165.04;233278;1217;139943;-61
2022/05/04 07:31:54;;;;;;;12.20;5.10;;;;;;;18.80;42.77;99169.14;233401;1217;139298;-61
2022/05/04 07:36:58;;;;;;;12.40;5.40;;;;;;;18.82;42.61;99174.31;233298;1217;139509;-61
2022/05/04 07:47:28;;;;;;;8.30;5.70;;;;;;;18.95;42.27;99177.41;233264;1217;139089;-60
2022/05/04 07:52:32;;;;;;;10.80;5.40;;;;;;;18.86;42.15;99184.25;233338;1217;138860;-61
2022/05/04 07:57:35;;;;;;;11.50;6.30;;;;;;;18.86;41.66;99184.36;233335;1217;138885;-62
2022/05/04 08:08:01;;;;;;;14.50;5.30;;;;;;;19.02;41.90;99181.43;233323;1217;138970;-63
2022/05/04 08:13:05;;;;;;;14.80;6.80;;;;;;;19.06;41.83;99184.14;233216;1217;139692;-62
2022/05/04 08:18:08;;;;;;;16.40;6.50;;;;;;;19.12;41.75;99183.02;233429;1217;139341;-61
2022/05/04 08:23:12;;;;;;;10.90;5.70;;;;;;;19.23;41.74;99184.90;233385;1217;139096;-62
2022/05/04 08:28:17;;;;;;;11.50;6.00;;;;;;;19.30;41.63;99184.51;233284;1218;140759;-61
2022/05/04 08:33:20;;;;;;;7.60;5.70;;;;;;;19.37;41.48;99186.53;233308;1217;139094;-61
2022/05/04 08:38:23;;;;;;;32.80;24.30;;;;;;;19.55;42.32;99189.33;233254;1217;138834;-62
2022/05/04 08:43:27;;;;;;;15.10;8.50;;;;;;;19.86;43.19;99183.26;233287;1217;139678;-61
2022/05/04 08:48:32;;;;;;;10.00;5.60;;;;;;;20.18;42.98;99181.31;233428;1217;139009;-60
2022/05/04 08:53:38;;;;;;;7.20;5.40;;;;;;;20.23;42.00;99181.38;233299;1217;138960;-61
2022/05/04 08:58:41;;;;;;;12.70;5.50;;;;;;;20.22;41.26;99182.95;232172;1217;138554;-61
2022/05/04 09:03:44;;;;;;;8.90;5.40;;;;;;;20.25;41.25;99181.60;232925;1217;139373;-61
2022/05/04 09:08:55;;;;;;;27.80;19.00;;;;;;;20.37;40.99;99183.80;233249;1217;139448;-65
2022/05/04 09:13:58;;;;;;;9.80;7.20;;;;;;;20.48;40.86;99181.98;233285;1217;139945;-61
2022/05/04 09:19:06;;;;;;;7.30;5.50;;;;;;;20.64;40.52;99185.83;233333;1217;139472;-61
2022/05/04 09:24:09;;;;;;;9.80;5.10;;;;;;;20.66;39.96;99180.84;233429;1217;140702;-62
2022/05/04 09:29:13;;;;;;;12.60;8.70;;;;;;;20.75;39.68;99187.02;233293;1217;138889;-61
2022/05/04 09:34:17;;;;;;;16.20;8.00;;;;;;;20.89;39.61;99186.45;233256;1217;139519;-63
2022/05/04 09:44:57;;;;;;;11.30;4.80;;;;;;;21.07;38.74;99180.26;233430;1217;139365;-60
2022/05/04 09:50:05;;;;;;;6.70;4.30;;;;;;;21.16;38.54;99184.73;233219;1217;247232;-60
2022/05/04 09:55:20;;;;;;;7.80;4.80;;;;;;;21.16;38.18;99180.59;233251;1217;139105;-62
2022/05/04 10:00:26;;;;;;;16.10;8.90;;;;;;;21.20;38.02;99177.98;233335;1217;138707;-61
2022/05/04 10:05:33;;;;;;;8.50;5.30;;;;;;;21.40;39.24;99180.86;233277;1217;139539;-61
2022/05/04 10:10:37;;;;;;;11.70;5.20;;;;;;;21.63;39.00;99167.98;233182;1217;138834;-61
2022/05/04 10:15:41;;;;;;;6.80;4.40;;;;;;;21.81;38.59;99157.93;233192;1217;138742;-61
2022/05/04 10:21:17;;;;;;;9.80;4.70;;;;;;;21.99;37.89;99164.79;233220;1217;138536;-63
2022/05/04 10:26:36;;;;;;;;;;;;;;;22.17;37.22;99157.61;232912;1218;140669;-64
2022/05/04 10:31:52;;;;;;;13.30;8.20;;;;;;;22.37;36.88;99151.73;233217;1217;125092;-64
2022/05/04 10:36:55;;;;;;;9.50;6.30;;;;;;;22.56;36.51;99145.46;233147;1217;139582;-64
2022/05/04 10:42:00;;;;;;;7.10;4.60;;;;;;;22.60;36.11;99146.04;233350;1217;138846;-64
2022/05/04 10:47:03;;;;;;;5.40;4.10;;;;;;;22.60;35.67;99143.19;233296;1217;138818;-64
2022/05/04 10:52:09;;;;;;;5.10;4.40;;;;;;;22.52;35.34;99146.15;233109;1217;140078;-64
2022/05/04 10:57:13;;;;;;;4.90;4.10;;;;;;;22.37;35.36;99145.34;233006;1217;139312;-63
2022/05/04 11:02:19;;;;;;;6.00;4.20;;;;;;;22.23;35.21;99138.77;233228;1216;138972;-63
2022/05/04 11:07:29;;;;;;;6.80;3.80;;;;;;;22.18;35.39;99142.54;233270;1217;139035;-64
2022/05/04 11:12:32;;;;;;;4.60;3.40;;;;;;;22.23;35.22;99136.89;233058;1217;138684;-63
2022/05/04 11:17:36;;;;;;;5.70;3.40;;;;;;;22.37;35.24;99133.35;233276;1217;139423;-63
2022/05/04 11:22:42;;;;;;;6.50;3.20;;;;;;;22.55;34.98;99137.95;233151;1217;139594;-63
2022/05/04 11:27:52;;;;;;;5.70;3.40;;;;;;;22.48;34.79;99134.04;233284;1217;140980;-63
2022/05/04 11:33:00;;;;;;;4.60;3.50;;;;;;;22.55;34.75;99131.34;233063;1217;139285;-63
2022/05/04 11:38:03;;;;;;;4.10;3.00;;;;;;;22.57;34.50;99133.19;233217;1217;140889;-64
2022/05/04 11:43:06;;;;;;;5.70;3.40;;;;;;;22.59;34.44;99125.52;233208;1217;138698;-63
2022/05/04 11:48:10;;;;;;;5.10;2.80;;;;;;;22.78;34.16;99129.38;233353;1217;139103;-63
2022/05/04 11:53:14;;;;;;;8.60;4.20;;;;;;;23.02;33.87;99122.23;233141;1217;138968;-63
2022/05/04 11:58:17;;;;;;;5.60;3.60;;;;;;;23.33;33.26;99109.85;233177;1217;138872;-64
2022/05/04 12:03:23;;;;;;;4.80;3.50;;;;;;;23.62;33.16;99103.77;233389;1217;139250;-63
2022/05/04 12:08:28;;;;;;;4.80;3.60;;;;;;;23.85;32.79;99098.25;233143;1217;139378;-64
2022/05/04 12:13:31;;;;;;;55.70;42.80;;;;;;;23.86;32.59;99093.84;233177;1217;138972;-64
2022/05/04 12:18:36;;;;;;;9.60;6.10;;;;;;;24.09;32.55;99094.73;233036;1217;139294;-65
2022/05/04 12:23:41;;;;;;;7.80;4.60;;;;;;;24.25;32.43;99093.73;233269;1217;138733;-65
2022/05/04 12:33:08;;;;;;;10.90;3.60;;;;;;;24.44;32.37;99080.99;233276;1217;138725;-65
2022/05/04 12:34:15;;;;;;;5.50;3.10;;;;;;;24.26;32.05;99078.16;233249;1217;138852;-64
2022/05/04 12:39:22;;;;;;;11.30;4.40;;;;;;;24.09;31.94;99084.20;233223;1217;139156;-66
2022/05/04 12:44:25;;;;;;;8.80;3.70;;;;;;;23.87;31.97;99075.25;233234;1217;139406;-65
2022/05/04 12:49:28;;;;;;;6.00;2.80;;;;;;;24.00;32.12;99074.95;233294;1217;139530;-65
2022/05/04 12:54:32;;;;;;;7.40;3.30;;;;;;;24.19;32.03;99072.39;233748;1217;139016;-65
2022/05/04 12:59:35;;;;;;;6.00;3.00;;;;;;;24.45;32.06;99063.14;233901;1217;140988;-65
2022/05/04 13:04:45;;;;;;;3.80;2.90;;;;;;;24.46;31.77;99068.98;233644;1217;138845;-65
2022/05/04 13:09:48;;;;;;;15.30;13.10;;;;;;;24.55;31.67;99067.71;233232;1217;139602;-65
2022/05/04 13:14:51;;;;;;;17.60;7.20;;;;;;;24.63;31.66;99062.02;233620;1217;138852;-65
2022/05/04 13:19:55;;;;;;;6.20;3.50;;;;;;;24.70;31.51;99055.90;233819;1217;139351;-65
2022/05/04 13:25:00;;;;;;;7.20;3.10;;;;;;;24.79;31.30;99051.56;233641;1217;139064;-66
2022/05/04 13:30:05;;;;;;;5.00;3.30;;;;;;;24.57;30.89;99057.08;233705;1217;139301;-65
2022/05/04 13:35:08;;;;;;;4.50;3.10;;;;;;;24.30;30.83;99059.08;233760;1217;139217;-65
2022/05/04 13:40:13;;;;;;;6.70;3.20;;;;;;;24.06;30.94;99056.80;233792;1217;138759;-65
2022/05/04 13:45:23;;;;;;;8.20;3.00;;;;;;;23.86;30.88;99049.55;233332;1216;139353;-65
2022/05/04 13:55:52;;;;;;;6.20;3.30;;;;;;;23.62;31.00;99056.89;233212;1217;139091;-66
2022/05/04 14:00:55;;;;;;;5.30;3.40;;;;;;;23.54;31.14;99055.33;233293;1217;140662;-65
2022/05/04 14:05:58;;;;;;;8.10;6.10;;;;;;;23.56;31.28;99050.15;233428;1217;138978;-64
2022/05/04 14:11:01;;;;;;;7.40;3.80;;;;;;;23.68;31.32;99057.98;233170;1217;141670;-64
2022/05/04 14:16:05;;;;;;;6.10;3.30;;;;;;;23.61;31.30;99053.73;233297;1217;139759;-65
2022/05/04 14:21:09;;;;;;;4.00;3.10;;;;;;;23.53;30.98;99057.54;233350;1217;139204;-65
2022/05/04 14:26:12;;;;;;;4.20;3.20;;;;;;;23.40;31.05;99059.05;233244;1217;138896;-64
2022/05/04 14:31:15;;;;;;;8.70;3.10;;;;;;;23.26;31.13;99056.71;233345;1217;138914;-65
2022/05/04 14:36:18;;;;;;;6.10;3.40;;;;;;;23.14;31.54;99049.57;233403;1217;139231;-66
2022/05/04 14:41:23;;;;;;;8.10;3.60;;;;;;;23.04;31.83;99053.06;233031;1217;139697;-64
2022/05/04 14:46:26;;;;;;;4.60;3.00;;;;;;;22.92;31.76;99047.72;233288;1217;138359;-65
2022/05/04 14:51:30;;;;;;;4.10;2.80;;;;;;;22.77;31.83;99050.36;233290;1217;139407;-65
2022/05/04 14:56:33;;;;;;;9.40;3.40;;;;;;;22.62;32.01;99049.60;233340;1216;139146;-65
2022/05/04 15:01:36;;;;;;;4.30;2.90;;;;;;;22.57;32.21;99044.77;233302;1217;139934;-63
2022/05/04 15:06:40;;;;;;;6.80;2.80;;;;;;;22.60;31.72;99047.33;233287;1217;138870;-64
2022/05/04 15:11:53;;;;;;;4.10;2.80;;;;;;;22.58;31.54;99049.34;233158;1219;139161;-64
2022/05/04 15:16:56;;;;;;;8.40;3.00;;;;;;;22.66;31.53;99050.84;232817;1218;139902;-64
2022/05/04 15:21:59;;;;;;;7.00;3.00;;;;;;;22.73;31.38;99050.43;232964;1217;138903;-64
2022/05/04 15:27:04;;;;;;;5.70;2.80;;;;;;;22.67;31.01;99048.37;233205;1217;140207;-64
2022/05/04 15:32:07;;;;;;;7.90;2.70;;;;;;;22.60;31.10;99045.02;233170;1217;139239;-64
2022/05/04 15:37:11;;;;;;;3.90;2.60;;;;;;;22.52;31.26;99041.46;233312;1217;139743;-63
2022/05/04 15:42:16;;;;;;;4.60;3.30;;;;;;;22.50;31.41;99041.91;233426;1217;138350;-64
2022/05/04 15:47:19;;;;;;;6.80;2.80;;;;;;;22.48;31.47;99041.41;233204;1217;139856;-64
2022/05/04 15:52:22;;;;;;;7.60;2.70;;;;;;;22.48;31.52;99036.64;233311;1217;138812;-63
2022/05/04 15:57:26;;;;;;;4.70;2.40;;;;;;;22.43;31.53;99036.44;233227;1215;139380;-64
2022/05/04 16:07:52;;;;;;;5.30;2.70;;;;;;;22.28;31.51;99040.75;233123;1217;139552;-64
2022/05/04 16:12:55;;;;;;;6.80;2.50;;;;;;;22.30;31.47;99041.05;233211;1217;139710;-63
2022/05/04 16:23:20;;;;;;;6.50;4.80;;;;;;;22.34;32.95;99038.95;233363;1217;139487;-61
2022/05/04 16:28:24;;;;;;;6.20;3.70;;;;;;;22.29;33.16;99043.25;233139;1217;139430;-64
2022/05/04 16:33:51;;;;;;;9.00;3.30;;;;;;;22.20;33.04;99043.46;231696;1219;139007;-64
2022/05/04 16:39:03;;;;;;;4.10;3.40;;;;;;;22.22;33.16;99044.09;231122;1217;139636;-62
2022/05/04 16:44:07;;;;;;;4.60;3.30;;;;;;;22.30;33.24;99039.09;231923;1217;139192;-63
2022/05/04 16:49:11;;;;;;;4.60;2.90;;;;;;;22.38;33.34;99040.61;232142;1217;138832;-64
2022/05/04 16:54:15;;;;;;;50.90;42.70;;;;;;;22.36;33.12;99041.48;232189;1217;138714;-61
2022/05/04 16:59:24;;;;;;;10.10;7.10;;;;;;;22.38;33.32;99041.39;232070;1217;138873;-62
2022/05/04 17:04:43;;;;;;;13.10;5.40;;;;;;;22.40;33.27;99044.98;232014;1217;138829;-62
2022/05/04 17:09:47;;;;;;;16.80;13.40;;;;;;;22.42;33.08;99047.29;231681;1217;139528;-62
2022/05/04 17:14:55;;;;;;;14.40;6.10;;;;;;;22.43;32.87;99050.33;231726;1217;140675;-60
2022/05/04 17:20:01;;;;;;;9.40;4.50;;;;;;;22.44;32.88;99051.05;231189;1217;138509;-60
2022/05/04 17:25:07;;;;;;;9.00;6.90;;;;;;;22.46;32.86;99053.09;231963;1217;139058;-60
2022/05/04 17:30:17;;;;;;;8.10;4.70;;;;;;;22.43;33.03;99057.73;232183;1217;139480;-59
2022/05/04 17:40:50;;;;;;;45.00;37.90;;;;;;;22.29;33.14;99063.63;231829;1217;138808;-61
2022/05/04 17:45:55;;;;;;;16.70;7.30;;;;;;;22.19;33.22;99071.77;232811;1217;139120;-61
2022/05/04 17:51:02;;;;;;;14.50;9.30;;;;;;;22.07;33.49;99072.19;230948;1215;140292;-60
2022/05/04 17:56:10;;;;;;;9.30;6.60;;;;;;;22.05;33.59;99074.80;231313;1217;138615;-59
2022/05/04 18:01:18;;;;;;;8.70;5.30;;;;;;;21.98;33.27;99078.16;231649;1219;138534;-59
2022/05/04 18:06:26;;;;;;;5.40;3.50;;;;;;;21.88;33.07;99083.64;231780;1217;139554;-57
2022/05/04 18:11:42;;;;;;;9.00;3.60;;;;;;;21.77;33.27;99089.00;232121;1217;138728;-60
2022/05/04 18:16:47;;;;;;;6.90;3.20;;;;;;;21.68;33.28;99098.19;232420;1217;139129;-63
2022/05/04 18:21:50;;;;;;;7.40;3.00;;;;;;;21.57;33.66;99101.58;233146;1217;139847;-58
2022/05/04 18:26:54;;;;;;;62.40;52.10;;;;;;;21.32;33.43;99102.39;233203;1217;138875;-59
2022/05/04 18:31:57;;;;;;;10.50;4.20;;;;;;;20.99;33.63;99117.42;233165;1217;138951;-60
2022/05/04 18:37:00;;;;;;;144.90;92.00;;;;;;;20.66;33.78;99120.66;233287;1216;139143;-61
2022/05/04 18:42:03;;;;;;;49.60;34.90;;;;;;;20.39;33.93;99122.46;233182;1217;139697;-62
2022/05/04 18:47:06;;;;;;;8.20;5.70;;;;;;;20.26;34.14;99126.34;233145;1217;140055;-60
2022/05/04 18:52:09;;;;;;;7.40;4.10;;;;;;;20.09;33.99;99131.79;232965;1217;139286;-59
2022/05/04 18:57:27;;;;;;;7.90;4.30;;;;;;;19.92;34.03;99132.95;233017;1217;139187;-59
2022/05/04 19:02:31;;;;;;;8.90;4.30;;;;;;;19.79;34.06;99142.05;233361;1217;138818;-60
2022/05/04 19:07:34;;;;;;;8.90;4.40;;;;;;;19.64;34.05;99140.38;233189;1217;139208;-60
2022/05/04 19:12:38;;;;;;;7.60;4.80;;;;;;;19.51;34.09;99145.20;233332;1217;138220;-61
2022/05/04 19:17:44;;;;;;;195.00;137.00;;;;;;;19.41;34.46;99152.30;233196;1216;139047;-61
2022/05/04 19:22:47;;;;;;;19.30;11.40;;;;;;;19.44;35.56;99156.38;233309;1217;139717;-60
2022/05/04 19:27:51;;;;;;;7.40;4.60;;;;;;;19.27;34.77;99165.04;233204;1217;139457;-59
2022/05/04 19:32:54;;;;;;;9.70;4.20;;;;;;;19.08;34.77;99168.47;233295;1217;139325;-60
2022/05/04 19:37:57;;;;;;;5.70;3.60;;;;;;;18.98;34.96;99167.98;233379;1217;139363;-58
2022/05/04 19:43:01;;;;;;;8.70;4.10;;;;;;;18.88;35.15;99164.98;233480;1217;139606;-58
2022/05/04 19:48:05;;;;;;;5.30;3.90;;;;;;;18.83;35.28;99170.95;233344;1217;139107;-58
2022/05/04 19:53:08;;;;;;;13.30;4.80;;;;;;;18.77;35.45;99169.83;233269;1217;139137;-59
2022/05/04 19:58:11;;;;;;;13.10;4.60;;;;;;;18.71;35.54;99180.23;232986;1217;138888;-57
2022/05/04 20:03:14;;;;;;;8.60;4.80;;;;;;;18.62;35.47;99186.77;233412;1217;140107;-56
2022/05/04 20:08:18;;;;;;;7.20;4.50;;;;;;;18.52;35.63;99180.71;233384;1217;138869;-59
2022/05/04 20:13:21;;;;;;;8.20;4.50;;;;;;;18.36;35.76;99181.63;233286;1217;139046;-58
2022/05/04 20:18:30;;;;;;;9.10;4.20;;;;;;;18.24;36.34;99189.62;233513;1217;139191;-57
2022/05/04 20:23:36;;;;;;;7.40;4.20;;;;;;;18.11;36.40;99186.61;233307;1217;138992;-57
2022/05/04 20:28:39;;;;;;;11.60;4.20;;;;;;;18.03;36.59;99190.26;233462;1217;138840;-57
2022/05/04 20:33:43;;;;;;;7.60;4.20;;;;;;;17.96;36.67;99198.76;233362;1217;139541;-58
2022/05/04 20:39:03;;;;;;;7.60;4.00;;;;;;;17.88;36.68;99204.48;233399;1217;139237;-57
2022/05/04 20:44:07;;;;;;;8.40;4.20;;;;;;;17.79;37.02;99202.92;233396;1217;138632;-58
2022/05/04 20:49:11;;;;;;;9.00;4.60;;;;;;;17.68;37.45;99207.13;233372;1217;139910;-57
2022/05/04 20:54:15;;;;;;;7.30;4.20;;;;;;;17.53;37.42;99205.11;233522;1217;138877;-59
2022/05/04 20:59:22;;;;;;;9.20;4.70;;;;;;;17.44;37.87;99213.64;233319;1217;138843;-60
2022/05/04 21:04:25;;;;;;;9.30;4.70;;;;;;;17.33;37.93;99216.59;232659;1217;139353;-59
2022/05/04 21:09:28;;;;;;;8.20;4.50;;;;;;;17.23;37.81;99209.86;233341;1217;139317;-58
2022/05/04 21:14:34;;;;;;;9.30;4.80;;;;;;;17.17;38.26;99213.62;233338;1217;140611;-56
2022/05/04 21:19:36;;;;;;;10.10;4.60;;;;;;;17.09;38.23;99215.20;233380;1217;138974;-56
2022/05/04 21:24:39;;;;;;;7.10;4.50;;;;;;;16.99;38.24;99219.94;233511;1217;138750;-57
2022/05/04 21:29:43;;;;;;;8.20;4.60;;;;;;;16.90;38.56;99222.89;232838;1217;138497;-60
2022/05/04 21:34:47;;;;;;;9.00;4.40;;;;;;;16.81;38.77;99229.21;233309;1217;138838;-61
2022/05/04 21:39:50;;;;;;;9.80;4.70;;;;;;;16.73;38.74;99231.69;233397;1217;138832;-60
2022/05/04 21:44:53;;;;;;;8.80;4.70;;;;;;;16.65;38.85;99228.36;233413;1217;138963;-63
2022/05/04 21:49:56;;;;;;;9.10;4.90;;;;;;;16.60;39.21;99229.75;233311;1217;138881;-63
2022/05/04 21:55:00;;;;;;;8.30;4.80;;;;;;;16.53;39.16;99228.15;233465;1217;139211;-62
2022/05/04 22:00:03;;;;;;;9.20;4.70;;;;;;;16.47;39.36;99233.87;233423;1217;138964;-60
2022/05/04 22:05:08;;;;;;;14.00;5.00;;;;;;;16.41;39.51;99233.79;233319;1217;139313;-59
2022/05/04 22:10:11;;;;;;;9.90;4.90;;;;;;;16.40;39.64;99234.13;233375;1217;139338;-59
2022/05/04 22:15:14;;;;;;;6.80;4.60;;;;;;;16.39;39.51;99234.16;233320;1217;139002;-59
2022/05/04 22:20:17;;;;;;;12.20;5.40;;;;;;;16.37;39.61;99230.43;233353;1217;138422;-60
2022/05/04 22:25:20;;;;;;;7.40;4.70;;;;;;;16.32;39.76;99230.23;233388;1217;139058;-58
2022/05/04 22:30:23;;;;;;;9.20;5.10;;;;;;;16.26;39.76;99226.25;233392;1217;139505;-58
2022/05/04 22:35:26;;;;;;;8.60;5.00;;;;;;;16.25;39.85;99226.55;233345;1217;139092;-59
2022/05/04 22:40:29;;;;;;;7.60;5.10;;;;;;;16.20;39.98;99228.71;233341;1217;139445;-60
2022/05/04 22:45:32;;;;;;;8.00;5.00;;;;;;;16.13;39.90;99225.71;233372;1217;140190;-58
2022/05/04 22:50:35;;;;;;;7.50;4.90;;;;;;;16.10;40.00;99228.36;233283;1217;139121;-59
2022/05/04 22:55:40;;;;;;;9.20;5.50;;;;;;;16.04;40.28;99230.27;233376;1217;139185;-60
2022/05/04 23:00:43;;;;;;;9.10;5.10;;;;;;;15.97;40.44;99226.48;233489;1217;138424;-57
2022/05/04 23:05:46;;;;;;;8.80;5.50;;;;;;;15.92;40.45;99226.58;233384;1217;139666;-59
2022/05/04 23:10:49;;;;;;;12.00;7.10;;;;;;;15.89;40.76;99228.08;233275;1217;139847;-58
2022/05/04 23:16:04;;;;;;;11.40;8.20;;;;;;;15.84;40.63;99231.30;233328;1216;138670;-57
2022/05/04 23:21:08;;;;;;;11.00;6.30;;;;;;;15.80;41.01;99225.77;233430;1217;139139;-58
2022/05/04 23:26:11;;;;;;;9.50;5.30;;;;;;;15.74;41.05;99225.11;233326;1217;139654;-59
2022/05/04 23:31:14;;;;;;;7.60;5.90;;;;;;;15.67;40.97;99219.84;233469;1217;139636;-60
2022/05/04 23:41:40;;;;;;;9.70;5.30;;;;;;;15.45;41.40;99225.33;233398;1217;138950;-59
2022/05/04 23:46:43;;;;;;;10.80;5.70;;;;;;;15.39;41.43;99224.35;233348;1215;138914;-59
2022/05/04 23:51:46;;;;;;;13.00;5.50;;;;;;;15.37;41.52;99228.94;233400;1217;138862;-62
2022/05/04 23:56:50;;;;;;;9.00;5.40;;;;;;;15.36;41.72;99224.38;233431;1217;139531;-60
